sensor_id;sensor_type;location;lat;lon;timestamp;P1;durP1;ratioP1;P2;durP2;ratioP2
17169;SDS011;8700;48.222;16.342;2024-03-22T00:01:27;17.77;;;16.27;;
17169;SDS011;8700;48.222;16.342;2024-03-22T00:04:48;17.83;;;16.33;;
17169;SDS011;8700;48.222;16.342;2024-03-22T00:08:08;17.67;;;16.00;;
17169;SDS011;8700;48.222;16.342;2024-03-22T00:11:30;16.40;;;15.05;;
17169;SDS011;8700;48.222;16.342;2024-03-22T00:14:51;17.30;;;15.90;;
17169;SDS011;8700;48.222;16.342;2024-03-22T00:18:14;18.75;;;17.05;;
17169;SDS011;8700;48.222;16.342;2024-03-22T00:21:35;18.35;;;16.85;;
17169;SDS011;8700;48.222;16.342;2024-03-22T00:24:55;18.60;;;17.00;;
17169;SDS011;8700;48.222;16.342;2024-03-22T00:28:16;19.83;;;18.17;;
17169;SDS011;8700;48.222;16.342;2024-03-22T00:31:38;19.63;;;18.02;;
17169;SDS011;8700;48.222;16.342;2024-03-22T00:34:59;20.08;;;18.30;;
17169;SDS011;8700;48.222;16.342;2024-03-22T00:38:20;19.50;;;17.70;;
17169;SDS011;8700;48.222;16.342;2024-03-22T00:41:43;19.50;;;17.73;;
17169;SDS011;8700;48.222;16.342;2024-03-22T00:45:03;19.27;;;17.67;;
17169;SDS011;8700;48.222;16.342;2024-03-22T00:48:26;19.90;;;18.15;;
17169;SDS011;8700;48.222;16.342;2024-03-22T00:51:46;20.63;;;18.90;;
17169;SDS011;8700;48.222;16.342;2024-03-22T00:55:07;21.20;;;19.40;;
17169;SDS011;8700;48.222;16.342;2024-03-22T00:58:28;21.77;;;19.88;;
17169;SDS011;8700;48.222;16.342;2024-03-22T01:01:50;21.55;;;19.65;;
17169;SDS011;8700;48.222;16.342;2024-03-22T01:05:12;21.00;;;19.27;;
17169;SDS011;8700;48.222;16.342;2024-03-22T01:08:33;22.63;;;20.40;;
17169;SDS011;8700;48.222;16.342;2024-03-22T01:11:55;21.42;;;19.63;;
17169;SDS011;8700;48.222;16.342;2024-03-22T01:15:15;22.10;;;20.15;;
17169;SDS011;8700;48.222;16.342;2024-03-22T01:18:37;22.65;;;20.73;;
17169;SDS011;8700;48.222;16.342;2024-03-22T01:21:58;22.35;;;20.42;;
17169;SDS011;8700;48.222;16.342;2024-03-22T01:25:20;25.23;;;22.85;;
17169;SDS011;8700;48.222;16.342;2024-03-22T01:28:40;24.27;;;22.13;;
17169;SDS011;8700;48.222;16.342;2024-03-22T01:32:02;23.10;;;20.85;;
17169;SDS011;8700;48.222;16.342;2024-03-22T01:35:23;23.25;;;21.25;;
17169;SDS011;8700;48.222;16.342;2024-03-22T01:38:45;24.05;;;21.60;;
17169;SDS011;8700;48.222;16.342;2024-03-22T01:42:07;23.77;;;21.67;;
17169;SDS011;8700;48.222;16.342;2024-03-22T01:45:27;23.58;;;21.50;;
17169;SDS011;8700;48.222;16.342;2024-03-22T01:48:53;24.58;;;22.42;;
17169;SDS011;8700;48.222;16.342;2024-03-22T01:52:14;25.80;;;23.52;;
17169;SDS011;8700;48.222;16.342;2024-03-22T01:55:37;24.35;;;22.38;;
17169;SDS011;8700;48.222;16.342;2024-03-22T01:58:58;25.23;;;22.92;;
17169;SDS011;8700;48.222;16.342;2024-03-22T02:02:20;27.15;;;24.65;;
17169;SDS011;8700;48.222;16.342;2024-03-22T02:05:41;24.20;;;21.80;;
17169;SDS011;8700;48.222;16.342;2024-03-22T02:09:02;25.77;;;23.50;;
17169;SDS011;8700;48.222;16.342;2024-03-22T02:12:26;24.27;;;22.17;;
17169;SDS011;8700;48.222;16.342;2024-03-22T02:15:46;27.00;;;23.85;;
17169;SDS011;8700;48.222;16.342;2024-03-22T02:19:07;26.98;;;24.58;;
17169;SDS011;8700;48.222;16.342;2024-03-22T02:22:28;26.65;;;24.20;;
17169;SDS011;8700;48.222;16.342;2024-03-22T02:25:50;26.73;;;24.33;;
17169;SDS011;8700;48.222;16.342;2024-03-22T02:29:10;27.83;;;25.45;;
17169;SDS011;8700;48.222;16.342;2024-03-22T02:32:32;26.08;;;23.77;;
17169;SDS011;8700;48.222;16.342;2024-03-22T02:35:53;27.23;;;24.63;;
17169;SDS011;8700;48.222;16.342;2024-03-22T02:39:14;26.25;;;23.75;;
17169;SDS011;8700;48.222;16.342;2024-03-22T02:42:37;25.35;;;23.10;;
17169;SDS011;8700;48.222;16.342;2024-03-22T02:45:57;26.13;;;23.40;;
17169;SDS011;8700;48.222;16.342;2024-03-22T02:49:18;26.85;;;24.33;;
17169;SDS011;8700;48.222;16.342;2024-03-22T02:52:39;26.90;;;24.50;;
17169;SDS011;8700;48.222;16.342;2024-03-22T02:55:59;25.80;;;23.42;;
17169;SDS011;8700;48.222;16.342;2024-03-22T02:59:25;28.77;;;26.27;;
17169;SDS011;8700;48.222;16.342;2024-03-22T03:02:46;27.00;;;24.38;;
17169;SDS011;8700;48.222;16.342;2024-03-22T03:06:08;27.52;;;25.00;;
17169;SDS011;8700;48.222;16.342;2024-03-22T03:09:29;25.73;;;23.52;;
17169;SDS011;8700;48.222;16.342;2024-03-22T03:12:49;26.13;;;23.55;;
17169;SDS011;8700;48.222;16.342;2024-03-22T03:16:12;26.75;;;24.05;;
17169;SDS011;8700;48.222;16.342;2024-03-22T03:19:32;25.73;;;23.38;;
17169;SDS011;8700;48.222;16.342;2024-03-22T03:22:53;25.35;;;23.08;;
17169;SDS011;8700;48.222;16.342;2024-03-22T03:26:15;26.02;;;23.60;;
17169;SDS011;8700;48.222;16.342;2024-03-22T03:29:36;25.73;;;23.42;;
17169;SDS011;8700;48.222;16.342;2024-03-22T03:32:58;27.42;;;25.05;;
17169;SDS011;8700;48.222;16.342;2024-03-22T03:36:19;28.42;;;25.92;;
17169;SDS011;8700;48.222;16.342;2024-03-22T03:39:40;28.27;;;25.55;;
17169;SDS011;8700;48.222;16.342;2024-03-22T03:43:02;28.17;;;25.40;;
17169;SDS011;8700;48.222;16.342;2024-03-22T03:46:23;26.30;;;23.80;;
17169;SDS011;8700;48.222;16.342;2024-03-22T03:49:46;27.92;;;25.27;;
17169;SDS011;8700;48.222;16.342;2024-03-22T03:53:07;26.55;;;24.15;;
17169;SDS011;8700;48.222;16.342;2024-03-22T03:56:28;26.52;;;24.02;;
17169;SDS011;8700;48.222;16.342;2024-03-22T03:59:48;25.48;;;23.13;;
17169;SDS011;8700;48.222;16.342;2024-03-22T04:03:09;27.20;;;24.65;;
17169;SDS011;8700;48.222;16.342;2024-03-22T04:06:32;26.48;;;23.75;;
17169;SDS011;8700;48.222;16.342;2024-03-22T04:09:53;24.90;;;22.65;;
17169;SDS011;8700;48.222;16.342;2024-03-22T04:13:14;27.38;;;24.85;;
17169;SDS011;8700;48.222;16.342;2024-03-22T04:16:35;26.70;;;24.10;;
17169;SDS011;8700;48.222;16.342;2024-03-22T04:19:56;26.88;;;24.30;;
17169;SDS011;8700;48.222;16.342;2024-03-22T04:23:17;26.92;;;24.52;;
17169;SDS011;8700;48.222;16.342;2024-03-22T04:26:39;26.55;;;23.88;;
17169;SDS011;8700;48.222;16.342;2024-03-22T04:30:00;26.02;;;23.75;;
17169;SDS011;8700;48.222;16.342;2024-03-22T04:33:20;27.17;;;24.67;;
17169;SDS011;8700;48.222;16.342;2024-03-22T04:36:41;29.35;;;26.48;;
17169;SDS011;8700;48.222;16.342;2024-03-22T04:40:04;29.20;;;26.42;;
17169;SDS011;8700;48.222;16.342;2024-03-22T04:43:27;27.77;;;25.08;;
17169;SDS011;8700;48.222;16.342;2024-03-22T04:46:49;26.83;;;24.40;;
17169;SDS011;8700;48.222;16.342;2024-03-22T04:50:10;28.30;;;25.73;;
17169;SDS011;8700;48.222;16.342;2024-03-22T04:53:33;26.17;;;23.67;;
17169;SDS011;8700;48.222;16.342;2024-03-22T04:56:56;25.75;;;23.27;;
17169;SDS011;8700;48.222;16.342;2024-03-22T05:00:19;26.70;;;24.13;;
17169;SDS011;8700;48.222;16.342;2024-03-22T05:03:39;26.67;;;24.38;;
17169;SDS011;8700;48.222;16.342;2024-03-22T05:07:00;27.77;;;25.15;;
17169;SDS011;8700;48.222;16.342;2024-03-22T05:10:22;25.48;;;22.85;;
17169;SDS011;8700;48.222;16.342;2024-03-22T05:13:45;26.40;;;23.67;;
17169;SDS011;8700;48.222;16.342;2024-03-22T05:17:06;24.70;;;22.40;;
17169;SDS011;8700;48.222;16.342;2024-03-22T05:20:27;26.50;;;24.13;;
17169;SDS011;8700;48.222;16.342;2024-03-22T05:23:49;26.15;;;23.73;;
17169;SDS011;8700;48.222;16.342;2024-03-22T05:27:10;25.20;;;22.88;;
17169;SDS011;8700;48.222;16.342;2024-03-22T05:30:33;25.80;;;23.38;;
17169;SDS011;8700;48.222;16.342;2024-03-22T05:33:54;26.30;;;23.92;;
17169;SDS011;8700;48.222;16.342;2024-03-22T05:37:14;24.55;;;22.25;;
17169;SDS011;8700;48.222;16.342;2024-03-22T05:40:36;25.52;;;23.23;;
17169;SDS011;8700;48.222;16.342;2024-03-22T05:43:58;24.27;;;22.02;;
17169;SDS011;8700;48.222;16.342;2024-03-22T05:47:20;23.83;;;21.63;;
17169;SDS011;8700;48.222;16.342;2024-03-22T05:50:41;25.02;;;22.70;;
17169;SDS011;8700;48.222;16.342;2024-03-22T05:54:02;25.58;;;23.17;;
17169;SDS011;8700;48.222;16.342;2024-03-22T05:57:24;24.33;;;22.13;;
17169;SDS011;8700;48.222;16.342;2024-03-22T06:00:44;24.52;;;22.25;;
17169;SDS011;8700;48.222;16.342;2024-03-22T06:04:06;26.58;;;23.88;;
17169;SDS011;8700;48.222;16.342;2024-03-22T06:07:27;28.08;;;25.27;;
17169;SDS011;8700;48.222;16.342;2024-03-22T06:10:48;25.60;;;23.20;;
17169;SDS011;8700;48.222;16.342;2024-03-22T06:14:09;29.77;;;26.67;;
17169;SDS011;8700;48.222;16.342;2024-03-22T06:17:30;27.08;;;24.60;;
17169;SDS011;8700;48.222;16.342;2024-03-22T06:20:53;29.05;;;25.75;;
17169;SDS011;8700;48.222;16.342;2024-03-22T06:24:14;30.35;;;26.20;;
17169;SDS011;8700;48.222;16.342;2024-03-22T06:27:36;36.30;;;32.47;;
17169;SDS011;8700;48.222;16.342;2024-03-22T06:30:56;41.65;;;37.40;;
17169;SDS011;8700;48.222;16.342;2024-03-22T06:34:17;33.60;;;30.40;;
17169;SDS011;8700;48.222;16.342;2024-03-22T06:37:41;30.42;;;27.02;;
17169;SDS011;8700;48.222;16.342;2024-03-22T06:41:02;31.85;;;28.85;;
17169;SDS011;8700;48.222;16.342;2024-03-22T06:44:23;29.80;;;26.90;;
17169;SDS011;8700;48.222;16.342;2024-03-22T06:47:44;32.78;;;29.38;;
17169;SDS011;8700;48.222;16.342;2024-03-22T06:51:05;31.23;;;28.13;;
17169;SDS011;8700;48.222;16.342;2024-03-22T06:54:27;29.17;;;26.35;;
17169;SDS011;8700;48.222;16.342;2024-03-22T06:57:49;30.45;;;27.33;;
17169;SDS011;8700;48.222;16.342;2024-03-22T07:01:09;32.35;;;29.10;;
17169;SDS011;8700;48.222;16.342;2024-03-22T07:04:30;30.55;;;27.75;;
17169;SDS011;8700;48.222;16.342;2024-03-22T07:07:52;31.70;;;28.67;;
17169;SDS011;8700;48.222;16.342;2024-03-22T07:11:16;34.42;;;31.13;;
17169;SDS011;8700;48.222;16.342;2024-03-22T07:14:37;32.78;;;28.88;;
17169;SDS011;8700;48.222;16.342;2024-03-22T07:17:58;33.95;;;30.48;;
17169;SDS011;8700;48.222;16.342;2024-03-22T07:21:18;34.17;;;30.90;;
17169;SDS011;8700;48.222;16.342;2024-03-22T07:24:39;32.95;;;29.67;;
17169;SDS011;8700;48.222;16.342;2024-03-22T07:28:02;34.40;;;30.83;;
17169;SDS011;8700;48.222;16.342;2024-03-22T07:31:23;35.33;;;31.52;;
17169;SDS011;8700;48.222;16.342;2024-03-22T07:34:45;34.92;;;31.10;;
17169;SDS011;8700;48.222;16.342;2024-03-22T07:38:07;31.83;;;28.45;;
17169;SDS011;8700;48.222;16.342;2024-03-22T07:41:27;33.22;;;29.77;;
17169;SDS011;8700;48.222;16.342;2024-03-22T07:44:49;33.53;;;29.85;;
17169;SDS011;8700;48.222;16.342;2024-03-22T07:48:11;32.33;;;28.92;;
17169;SDS011;8700;48.222;16.342;2024-03-22T07:51:32;32.20;;;28.73;;
17169;SDS011;8700;48.222;16.342;2024-03-22T07:54:52;32.83;;;29.42;;
17169;SDS011;8700;48.222;16.342;2024-03-22T07:58:13;33.55;;;29.83;;
17169;SDS011;8700;48.222;16.342;2024-03-22T08:01:35;30.75;;;27.77;;
17169;SDS011;8700;48.222;16.342;2024-03-22T08:04:57;29.80;;;26.20;;
17169;SDS011;8700;48.222;16.342;2024-03-22T08:08:18;28.85;;;25.75;;
17169;SDS011;8700;48.222;16.342;2024-03-22T08:11:38;33.97;;;30.52;;
17169;SDS011;8700;48.222;16.342;2024-03-22T08:14:59;31.42;;;26.98;;
17169;SDS011;8700;48.222;16.342;2024-03-22T08:18:22;29.80;;;27.00;;
17169;SDS011;8700;48.222;16.342;2024-03-22T08:21:43;30.45;;;27.17;;
17169;SDS011;8700;48.222;16.342;2024-03-22T08:25:03;28.40;;;25.60;;
17169;SDS011;8700;48.222;16.342;2024-03-22T08:28:27;28.73;;;25.52;;
17169;SDS011;8700;48.222;16.342;2024-03-22T08:31:47;29.58;;;26.75;;
17169;SDS011;8700;48.222;16.342;2024-03-22T08:35:09;29.40;;;26.30;;
17169;SDS011;8700;48.222;16.342;2024-03-22T08:38:31;29.92;;;26.90;;
17169;SDS011;8700;48.222;16.342;2024-03-22T08:41:51;31.20;;;28.08;;
17169;SDS011;8700;48.222;16.342;2024-03-22T08:45:12;34.97;;;27.60;;
17169;SDS011;8700;48.222;16.342;2024-03-22T08:48:34;31.40;;;28.15;;
17169;SDS011;8700;48.222;16.342;2024-03-22T08:51:56;31.85;;;26.70;;
17169;SDS011;8700;48.222;16.342;2024-03-22T08:55:17;29.02;;;26.25;;
17169;SDS011;8700;48.222;16.342;2024-03-22T08:58:39;28.73;;;25.80;;
17169;SDS011;8700;48.222;16.342;2024-03-22T09:01:59;28.27;;;25.40;;
17169;SDS011;8700;48.222;16.342;2024-03-22T09:05:21;28.92;;;26.13;;
17169;SDS011;8700;48.222;16.342;2024-03-22T09:08:43;28.58;;;24.77;;
17169;SDS011;8700;48.222;16.342;2024-03-22T09:12:05;27.83;;;25.20;;
17169;SDS011;8700;48.222;16.342;2024-03-22T09:15:26;27.70;;;24.85;;
17169;SDS011;8700;48.222;16.342;2024-03-22T09:18:47;26.85;;;24.40;;
17169;SDS011;8700;48.222;16.342;2024-03-22T09:22:08;27.00;;;24.52;;
17169;SDS011;8700;48.222;16.342;2024-03-22T09:25:31;26.85;;;24.20;;
17169;SDS011;8700;48.222;16.342;2024-03-22T09:28:53;25.02;;;22.55;;
17169;SDS011;8700;48.222;16.342;2024-03-22T09:32:14;28.20;;;25.45;;
17169;SDS011;8700;48.222;16.342;2024-03-22T09:35:35;26.92;;;24.25;;
17169;SDS011;8700;48.222;16.342;2024-03-22T09:38:56;26.90;;;24.05;;
17169;SDS011;8700;48.222;16.342;2024-03-22T09:42:18;24.92;;;22.42;;
17169;SDS011;8700;48.222;16.342;2024-03-22T09:45:42;23.65;;;21.52;;
17169;SDS011;8700;48.222;16.342;2024-03-22T09:49:05;24.88;;;22.27;;
17169;SDS011;8700;48.222;16.342;2024-03-22T09:52:26;24.92;;;22.33;;
17169;SDS011;8700;48.222;16.342;2024-03-22T09:55:49;23.48;;;21.33;;
17169;SDS011;8700;48.222;16.342;2024-03-22T09:59:12;21.98;;;19.65;;
17169;SDS011;8700;48.222;16.342;2024-03-22T10:02:33;22.58;;;20.25;;
17169;SDS011;8700;48.222;16.342;2024-03-22T10:05:55;23.75;;;21.13;;
17169;SDS011;8700;48.222;16.342;2024-03-22T10:09:16;21.75;;;19.45;;
17169;SDS011;8700;48.222;16.342;2024-03-22T10:12:37;25.92;;;18.83;;
17169;SDS011;8700;48.222;16.342;2024-03-22T10:16:00;17.45;;;15.75;;
17169;SDS011;8700;48.222;16.342;2024-03-22T10:19:22;19.13;;;17.38;;
17169;SDS011;8700;48.222;16.342;2024-03-22T10:22:42;18.10;;;16.50;;
17169;SDS011;8700;48.222;16.342;2024-03-22T10:26:04;19.75;;;15.23;;
17169;SDS011;8700;48.222;16.342;2024-03-22T10:29:24;22.88;;;16.77;;
17169;SDS011;8700;48.222;16.342;2024-03-22T10:32:47;18.77;;;17.17;;
17169;SDS011;8700;48.222;16.342;2024-03-22T10:36:08;17.48;;;15.65;;
17169;SDS011;8700;48.222;16.342;2024-03-22T10:39:31;17.02;;;15.40;;
17169;SDS011;8700;48.222;16.342;2024-03-22T10:42:53;15.63;;;14.18;;
17169;SDS011;8700;48.222;16.342;2024-03-22T10:46:14;15.65;;;13.95;;
17169;SDS011;8700;48.222;16.342;2024-03-22T10:49:40;17.05;;;15.45;;
17169;SDS011;8700;48.222;16.342;2024-03-22T10:53:02;16.45;;;14.85;;
17169;SDS011;8700;48.222;16.342;2024-03-22T10:56:27;18.83;;;17.13;;
17169;SDS011;8700;48.222;16.342;2024-03-22T10:59:49;16.63;;;15.02;;
17169;SDS011;8700;48.222;16.342;2024-03-22T11:03:14;17.08;;;14.80;;
17169;SDS011;8700;48.222;16.342;2024-03-22T11:06:37;14.55;;;13.13;;
17169;SDS011;8700;48.222;16.342;2024-03-22T11:10:00;14.82;;;13.15;;
17169;SDS011;8700;48.222;16.342;2024-03-22T11:13:22;15.90;;;14.35;;
17169;SDS011;8700;48.222;16.342;2024-03-22T11:16:44;14.80;;;13.45;;
17169;SDS011;8700;48.222;16.342;2024-03-22T11:20:05;15.38;;;13.88;;
17169;SDS011;8700;48.222;16.342;2024-03-22T11:23:28;14.82;;;13.43;;
17169;SDS011;8700;48.222;16.342;2024-03-22T11:26:48;13.63;;;12.32;;
17169;SDS011;8700;48.222;16.342;2024-03-22T11:30:09;13.93;;;12.65;;
17169;SDS011;8700;48.222;16.342;2024-03-22T11:33:30;13.10;;;11.73;;
17169;SDS011;8700;48.222;16.342;2024-03-22T11:36:53;13.88;;;12.60;;
17169;SDS011;8700;48.222;16.342;2024-03-22T11:40:15;13.07;;;11.88;;
17169;SDS011;8700;48.222;16.342;2024-03-22T11:43:36;15.93;;;13.55;;
17169;SDS011;8700;48.222;16.342;2024-03-22T11:46:57;13.48;;;12.13;;
17169;SDS011;8700;48.222;16.342;2024-03-22T11:50:19;13.13;;;11.57;;
17169;SDS011;8700;48.222;16.342;2024-03-22T11:53:48;12.48;;;11.38;;
17169;SDS011;8700;48.222;16.342;2024-03-22T11:57:11;13.48;;;12.13;;
17169;SDS011;8700;48.222;16.342;2024-03-22T12:00:31;21.52;;;14.18;;
17169;SDS011;8700;48.222;16.342;2024-03-22T12:03:53;12.45;;;11.32;;
17169;SDS011;8700;48.222;16.342;2024-03-22T12:07:15;13.48;;;12.18;;
17169;SDS011;8700;48.222;16.342;2024-03-22T12:10:37;13.32;;;12.13;;
17169;SDS011;8700;48.222;16.342;2024-03-22T12:13:59;11.75;;;10.75;;
17169;SDS011;8700;48.222;16.342;2024-03-22T12:17:20;12.98;;;11.80;;
17169;SDS011;8700;48.222;16.342;2024-03-22T12:20:40;14.00;;;12.60;;
17169;SDS011;8700;48.222;16.342;2024-03-22T12:24:01;13.50;;;12.35;;
17169;SDS011;8700;48.222;16.342;2024-03-22T12:27:22;13.27;;;12.10;;
17169;SDS011;8700;48.222;16.342;2024-03-22T12:30:44;16.30;;;14.85;;
17169;SDS011;8700;48.222;16.342;2024-03-22T12:34:05;13.27;;;11.98;;
17169;SDS011;8700;48.222;16.342;2024-03-22T12:37:26;16.35;;;12.57;;
17169;SDS011;8700;48.222;16.342;2024-03-22T12:40:47;19.05;;;12.85;;
17169;SDS011;8700;48.222;16.342;2024-03-22T12:44:10;27.63;;;14.80;;
17169;SDS011;8700;48.222;16.342;2024-03-22T12:47:32;20.10;;;14.10;;
17169;SDS011;8700;48.222;16.342;2024-03-22T12:50:53;13.13;;;11.93;;
17169;SDS011;8700;48.222;16.342;2024-03-22T12:54:15;12.38;;;11.25;;
17169;SDS011;8700;48.222;16.342;2024-03-22T12:57:38;12.88;;;11.77;;
17169;SDS011;8700;48.222;16.342;2024-03-22T13:00:59;25.13;;;13.68;;
17169;SDS011;8700;48.222;16.342;2024-03-22T13:04:22;19.58;;;12.93;;
17169;SDS011;8700;48.222;16.342;2024-03-22T13:07:44;12.57;;;11.02;;
17169;SDS011;8700;48.222;16.342;2024-03-22T13:11:05;12.10;;;10.90;;
17169;SDS011;8700;48.222;16.342;2024-03-22T13:14:27;12.52;;;10.27;;
17169;SDS011;8700;48.222;16.342;2024-03-22T13:17:49;12.70;;;11.50;;
17169;SDS011;8700;48.222;16.342;2024-03-22T13:21:11;14.68;;;12.48;;
17169;SDS011;8700;48.222;16.342;2024-03-22T13:24:32;11.98;;;10.90;;
17169;SDS011;8700;48.222;16.342;2024-03-22T13:27:54;12.35;;;10.70;;
17169;SDS011;8700;48.222;16.342;2024-03-22T13:31:16;11.73;;;10.52;;
17169;SDS011;8700;48.222;16.342;2024-03-22T13:34:37;31.83;;;14.00;;
17169;SDS011;8700;48.222;16.342;2024-03-22T13:37:59;13.45;;;9.63;;
17169;SDS011;8700;48.222;16.342;2024-03-22T13:41:20;10.70;;;9.77;;
17169;SDS011;8700;48.222;16.342;2024-03-22T13:44:41;10.40;;;9.40;;
17169;SDS011;8700;48.222;16.342;2024-03-22T13:48:09;10.68;;;9.77;;
17169;SDS011;8700;48.222;16.342;2024-03-22T13:51:32;11.45;;;10.45;;
17169;SDS011;8700;48.222;16.342;2024-03-22T13:54:54;11.15;;;10.23;;
17169;SDS011;8700;48.222;16.342;2024-03-22T13:58:15;10.98;;;9.32;;
17169;SDS011;8700;48.222;16.342;2024-03-22T14:01:36;9.73;;;8.82;;
17169;SDS011;8700;48.222;16.342;2024-03-22T14:05:01;9.50;;;8.70;;
17169;SDS011;8700;48.222;16.342;2024-03-22T14:08:22;9.85;;;8.85;;
17169;SDS011;8700;48.222;16.342;2024-03-22T14:11:44;9.02;;;8.23;;
17169;SDS011;8700;48.222;16.342;2024-03-22T14:15:08;10.88;;;9.98;;
17169;SDS011;8700;48.222;16.342;2024-03-22T14:18:30;9.32;;;7.97;;
17169;SDS011;8700;48.222;16.342;2024-03-22T14:21:51;26.42;;;14.15;;
17169;SDS011;8700;48.222;16.342;2024-03-22T14:25:12;10.75;;;9.73;;
17169;SDS011;8700;48.222;16.342;2024-03-22T14:28:34;12.00;;;10.80;;
17169;SDS011;8700;48.222;16.342;2024-03-22T14:31:56;11.15;;;10.07;;
17169;SDS011;8700;48.222;16.342;2024-03-22T14:35:16;9.77;;;8.77;;
17169;SDS011;8700;48.222;16.342;2024-03-22T14:38:37;12.00;;;9.85;;
17169;SDS011;8700;48.222;16.342;2024-03-22T14:41:59;10.35;;;9.35;;
17169;SDS011;8700;48.222;16.342;2024-03-22T14:45:20;11.15;;;9.70;;
17169;SDS011;8700;48.222;16.342;2024-03-22T14:48:42;10.55;;;9.60;;
17169;SDS011;8700;48.222;16.342;2024-03-22T14:52:03;10.73;;;9.60;;
17169;SDS011;8700;48.222;16.342;2024-03-22T14:55:24;11.07;;;9.98;;
17169;SDS011;8700;48.222;16.342;2024-03-22T14:58:45;12.13;;;11.13;;
17169;SDS011;8700;48.222;16.342;2024-03-22T15:02:07;9.48;;;8.57;;
17169;SDS011;8700;48.222;16.342;2024-03-22T15:05:29;9.82;;;8.93;;
17169;SDS011;8700;48.222;16.342;2024-03-22T15:08:50;10.52;;;9.05;;
17169;SDS011;8700;48.222;16.342;2024-03-22T15:12:10;9.52;;;8.75;;
17169;SDS011;8700;48.222;16.342;2024-03-22T15:15:32;8.38;;;7.70;;
17169;SDS011;8700;48.222;16.342;2024-03-22T15:18:54;8.30;;;7.45;;
17169;SDS011;8700;48.222;16.342;2024-03-22T15:22:15;8.40;;;7.45;;
17169;SDS011;8700;48.222;16.342;2024-03-22T15:25:38;8.43;;;7.70;;
17169;SDS011;8700;48.222;16.342;2024-03-22T15:28:59;8.93;;;7.70;;
17169;SDS011;8700;48.222;16.342;2024-03-22T15:32:20;11.65;;;9.50;;
17169;SDS011;8700;48.222;16.342;2024-03-22T15:35:44;7.20;;;6.70;;
17169;SDS011;8700;48.222;16.342;2024-03-22T15:39:07;8.25;;;7.65;;
17169;SDS011;8700;48.222;16.342;2024-03-22T15:42:29;8.43;;;7.60;;
17169;SDS011;8700;48.222;16.342;2024-03-22T15:45:49;8.05;;;7.15;;
17169;SDS011;8700;48.222;16.342;2024-03-22T15:49:10;9.45;;;8.63;;
17169;SDS011;8700;48.222;16.342;2024-03-22T15:52:32;8.35;;;7.55;;
17169;SDS011;8700;48.222;16.342;2024-03-22T15:55:54;8.10;;;7.50;;
17169;SDS011;8700;48.222;16.342;2024-03-22T15:59:14;8.90;;;8.10;;
17169;SDS011;8700;48.222;16.342;2024-03-22T16:02:35;10.82;;;9.20;;
17169;SDS011;8700;48.222;16.342;2024-03-22T16:05:56;9.43;;;8.73;;
17169;SDS011;8700;48.222;16.342;2024-03-22T16:09:18;9.05;;;8.35;;
17169;SDS011;8700;48.222;16.342;2024-03-22T16:12:39;9.00;;;8.30;;
17169;SDS011;8700;48.222;16.342;2024-03-22T16:16:00;8.52;;;7.63;;
17169;SDS011;8700;48.222;16.342;2024-03-22T16:19:21;9.20;;;7.95;;
17169;SDS011;8700;48.222;16.342;2024-03-22T16:22:41;8.77;;;8.18;;
17169;SDS011;8700;48.222;16.342;2024-03-22T16:26:04;8.02;;;7.25;;
17169;SDS011;8700;48.222;16.342;2024-03-22T16:29:25;9.13;;;8.40;;
17169;SDS011;8700;48.222;16.342;2024-03-22T16:32:46;9.60;;;8.75;;
17169;SDS011;8700;48.222;16.342;2024-03-22T16:36:07;9.45;;;8.75;;
17169;SDS011;8700;48.222;16.342;2024-03-22T16:39:29;9.13;;;8.27;;
17169;SDS011;8700;48.222;16.342;2024-03-22T16:42:50;10.23;;;9.32;;
17169;SDS011;8700;48.222;16.342;2024-03-22T16:46:11;10.27;;;9.35;;
17169;SDS011;8700;48.222;16.342;2024-03-22T16:49:33;10.25;;;9.45;;
17169;SDS011;8700;48.222;16.342;2024-03-22T16:52:53;9.85;;;9.05;;
17169;SDS011;8700;48.222;16.342;2024-03-22T16:56:14;10.75;;;9.77;;
17169;SDS011;8700;48.222;16.342;2024-03-22T16:59:36;9.88;;;9.07;;
17169;SDS011;8700;48.222;16.342;2024-03-22T17:02:57;10.73;;;9.80;;
17169;SDS011;8700;48.222;16.342;2024-03-22T17:06:19;11.25;;;10.30;;
17169;SDS011;8700;48.222;16.342;2024-03-22T17:09:39;12.13;;;11.23;;
17169;SDS011;8700;48.222;16.342;2024-03-22T17:13:00;10.90;;;10.05;;
17169;SDS011;8700;48.222;16.342;2024-03-22T17:16:22;11.88;;;10.88;;
17169;SDS011;8700;48.222;16.342;2024-03-22T17:19:43;10.98;;;9.95;;
17169;SDS011;8700;48.222;16.342;2024-03-22T17:23:04;12.38;;;11.30;;
17169;SDS011;8700;48.222;16.342;2024-03-22T17:26:25;11.20;;;10.25;;
17169;SDS011;8700;48.222;16.342;2024-03-22T17:29:45;12.00;;;11.00;;
17169;SDS011;8700;48.222;16.342;2024-03-22T17:33:08;11.07;;;10.07;;
17169;SDS011;8700;48.222;16.342;2024-03-22T17:36:29;12.38;;;11.20;;
17169;SDS011;8700;48.222;16.342;2024-03-22T17:39:50;12.13;;;11.00;;
17169;SDS011;8700;48.222;16.342;2024-03-22T17:43:11;10.80;;;9.95;;
17169;SDS011;8700;48.222;16.342;2024-03-22T17:46:33;12.68;;;11.57;;
17169;SDS011;8700;48.222;16.342;2024-03-22T17:49:57;13.88;;;12.60;;
17169;SDS011;8700;48.222;16.342;2024-03-22T17:53:19;13.38;;;12.18;;
17169;SDS011;8700;48.222;16.342;2024-03-22T17:56:40;13.25;;;11.70;;
17169;SDS011;8700;48.222;16.342;2024-03-22T18:00:02;15.02;;;13.55;;
17169;SDS011;8700;48.222;16.342;2024-03-22T18:03:24;12.55;;;11.30;;
17169;SDS011;8700;48.222;16.342;2024-03-22T18:06:47;14.32;;;13.07;;
17169;SDS011;8700;48.222;16.342;2024-03-22T18:10:07;12.80;;;11.60;;
17169;SDS011;8700;48.222;16.342;2024-03-22T18:13:29;12.77;;;11.77;;
17169;SDS011;8700;48.222;16.342;2024-03-22T18:16:51;12.40;;;11.30;;
17169;SDS011;8700;48.222;16.342;2024-03-22T18:20:12;13.85;;;12.68;;
17169;SDS011;8700;48.222;16.342;2024-03-22T18:23:37;13.43;;;12.32;;
17169;SDS011;8700;48.222;16.342;2024-03-22T18:26:59;13.27;;;12.07;;
17169;SDS011;8700;48.222;16.342;2024-03-22T18:30:21;13.57;;;12.38;;
17169;SDS011;8700;48.222;16.342;2024-03-22T18:33:41;13.75;;;12.57;;
17169;SDS011;8700;48.222;16.342;2024-03-22T18:37:02;13.68;;;12.57;;
17169;SDS011;8700;48.222;16.342;2024-03-22T18:40:24;13.00;;;11.90;;
17169;SDS011;8700;48.222;16.342;2024-03-22T18:43:45;14.70;;;13.30;;
17169;SDS011;8700;48.222;16.342;2024-03-22T18:47:05;13.10;;;12.00;;
17169;SDS011;8700;48.222;16.342;2024-03-22T18:50:27;14.13;;;12.80;;
17169;SDS011;8700;48.222;16.342;2024-03-22T18:53:47;17.38;;;15.27;;
17169;SDS011;8700;48.222;16.342;2024-03-22T18:57:09;16.52;;;15.02;;
17169;SDS011;8700;48.222;16.342;2024-03-22T19:00:30;16.13;;;14.57;;
17169;SDS011;8700;48.222;16.342;2024-03-22T19:03:51;16.40;;;14.82;;
17169;SDS011;8700;48.222;16.342;2024-03-22T19:07:12;16.52;;;15.05;;
17169;SDS011;8700;48.222;16.342;2024-03-22T19:10:33;15.07;;;13.80;;
17169;SDS011;8700;48.222;16.342;2024-03-22T19:13:56;16.25;;;14.60;;
17169;SDS011;8700;48.222;16.342;2024-03-22T19:17:17;16.52;;;15.02;;
17169;SDS011;8700;48.222;16.342;2024-03-22T19:20:38;15.43;;;13.95;;
17169;SDS011;8700;48.222;16.342;2024-03-22T19:23:58;16.02;;;14.65;;
17169;SDS011;8700;48.222;16.342;2024-03-22T19:27:19;16.85;;;15.30;;
17169;SDS011;8700;48.222;16.342;2024-03-22T19:30:42;16.20;;;14.57;;
17169;SDS011;8700;48.222;16.342;2024-03-22T19:34:03;15.63;;;14.18;;
17169;SDS011;8700;48.222;16.342;2024-03-22T19:37:24;15.70;;;14.20;;
17169;SDS011;8700;48.222;16.342;2024-03-22T19:40:46;13.57;;;12.45;;
17169;SDS011;8700;48.222;16.342;2024-03-22T19:44:07;15.45;;;14.00;;